Friday, July 20, 2018, 4:53 AM EDT
Back to Local

KFDK, Frederick, Frederick Municipal Airport

Location: Frederick, MD, United States Lat: 39.417
Local Time: 4:53 AM EDT ( 8:53 GMT) Lon: -77.374
Time Zone: US/Eastern Elev: 301 ft

Show me the last for .
Show Decoded

2018-07-20 04:35 METAR KFDK 200835Z AUTO 00000KT 10SM SCT070 16/16 A3014 RMK AO2 LTG DSNT W =
2018-07-20 04:15 METAR KFDK 200815Z AUTO 08003KT 10SM SCT070 16/16 A3014 RMK AO2 =
2018-07-20 03:55 METAR KFDK 200755Z AUTO 00000KT 10SM SCT070 16/16 A3014 RMK AO2 =
2018-07-20 03:35 METAR KFDK 200735Z AUTO 00000KT 10SM CLR 16/16 A3013 RMK AO2 =
2018-07-20 03:15 METAR KFDK 200715Z AUTO 00000KT 10SM CLR 17/17 A3013 RMK AO2 =
2018-07-20 02:55 METAR KFDK 200655Z AUTO 00000KT 10SM CLR 17/17 A3013 RMK AO2 =
2018-07-20 02:35 METAR KFDK 200635Z AUTO 00000KT 10SM CLR 17/17 A3013 RMK AO2 =
2018-07-20 02:15 METAR KFDK 200615Z AUTO 00000KT 10SM CLR 17/17 A3013 RMK AO2 =
2018-07-20 01:55 METAR KFDK 200555Z AUTO 00000KT 10SM CLR 18/18 A3013 RMK AO2 =
2018-07-20 01:35 METAR KFDK 200535Z AUTO 00000KT 10SM CLR 18/18 A3013 RMK AO2 =
2018-07-20 01:15 METAR KFDK 200515Z AUTO 00000KT 10SM CLR 18/16 A3013 RMK AO2 =
2018-07-20 00:55 METAR KFDK 200455Z AUTO 00000KT 10SM CLR 19/15 A3013 RMK AO2 =
2018-07-20 00:35 METAR KFDK 200435Z AUTO 00000KT 10SM CLR 20/15 A3014 RMK AO2 =
2018-07-20 00:15 METAR KFDK 200415Z AUTO 00000KT 10SM CLR 21/14 A3013 RMK AO2 =
2018-07-19 23:55 METAR KFDK 200355Z AUTO 00000KT 10SM CLR 21/14 A3012 RMK AO2 =
2018-07-19 23:35 METAR KFDK 200335Z AUTO 00000KT 10SM CLR 22/13 A3012 RMK AO2 =
2018-07-19 23:15 METAR KFDK 200315Z AUTO 00000KT 10SM CLR 22/13 A3012 RMK AO2 =
2018-07-19 22:55 METAR KFDK 200255Z AUTO 11003KT 10SM CLR 23/13 A3011 RMK AO2 =
2018-07-19 22:35 METAR KFDK 200235Z AUTO 11003KT 10SM CLR 23/13 A3011 RMK AO2 =
2018-07-19 22:15 METAR KFDK 200215Z AUTO 12004KT 10SM SCT065 23/13 A3011 RMK AO2 =
2018-07-19 21:55 METAR KFDK 200155Z AUTO 12004KT 10SM CLR 23/14 A3010 RMK AO2 LTG DSNT W =
2018-07-19 21:35 METAR KFDK 200135Z AUTO 12004KT 10SM SCT065 23/15 A3010 RMK AO2 =
2018-07-19 21:15 METAR KFDK 200115Z AUTO 00000KT 7SM CLR 22/16 A3009 RMK AO2 =
2018-07-19 20:55 METAR KFDK 200055Z AUTO 10003KT 10SM CLR 23/16 A3009 RMK AO2 =
2018-07-19 20:47 METAR KFDK 200047Z 00000KT 10SM SKC 24/16 A3009 =
2018-07-19 19:47 METAR KFDK 192347Z 00000KT 10SM SKC 28/13 A3008 =
2018-07-19 18:47 METAR KFDK 192247Z 00000KT 10SM SKC 29/10 A3008 =
2018-07-19 17:47 METAR KFDK 192147Z 00000KT 10SM SKC 29/08 A3009 =
2018-07-19 16:47 METAR KFDK 192047Z 23006KT 10SM SKC 29/11 A3010 =
2018-07-19 15:47 METAR KFDK 191947Z 00000KT 10SM SKC 29/10 A3010 =
2018-07-19 14:47 METAR KFDK 191847Z 00000KT 10SM SKC 29/11 A3011 =
2018-07-19 13:47 METAR KFDK 191747Z VRB04KT 10SM SKC 28/11 A3013 =
2018-07-19 12:48 METAR KFDK 191648Z 03004KT 10SM SKC 27/11 A3015 =
2018-07-19 11:54 METAR KFDK 191554Z 00000KT 10SM SKC 26/11 A3015 =
2018-07-19 10:46 METAR KFDK 191446Z 02003KT 10SM SKC 25/12 A3015 =
2018-07-19 09:47 METAR KFDK 191347Z 01004KT 10SM SKC 23/11 A3015 =
2018-07-19 08:48 METAR KFDK 191248Z 04004KT 10SM SKC 22/11 A3015 =
2018-07-19 07:50 METAR KFDK 191150Z 03004KT 10SM SKC 20/13 A3014 =
2018-07-19 06:45 METAR KFDK 191045Z AUTO 02004KT 10SM SCT075 17/17 A3012 RMK AO2 =
2018-07-19 06:35 METAR KFDK 191035Z AUTO 03004KT 10SM SCT075 17/17 A3012 RMK AO2 =
2018-07-19 06:15 METAR KFDK 191015Z AUTO 02003KT 10SM SCT075 17/17 A3011 RMK AO2 =
2018-07-19 05:55 METAR KFDK 190955Z AUTO 00000KT 10SM SCT080 17/17 A3011 RMK AO2 =
2018-07-19 05:35 METAR KFDK 190935Z AUTO 02003KT 10SM BKN080 17/17 A3011 RMK AO2 =
2018-07-19 05:15 METAR KFDK 190915Z AUTO 03004KT 10SM BKN080 17/17 A3011 RMK AO2 =
2018-07-19 04:55 METAR KFDK 190855Z AUTO 03003KT 10SM BKN080 17/17 A3010 RMK AO2 =

Support USWX by starting your Amazon purchase here.